createdAt,value
2022-08-16T00:00:03.692Z,0.00
2022-08-16T00:00:52.256Z,0.00
2022-08-16T00:01:49.251Z,0.00
2022-08-16T00:02:49.223Z,0.00
2022-08-16T00:03:49.110Z,0.00
2022-08-16T00:04:51.025Z,0.00
2022-08-16T00:05:49.187Z,0.00
2022-08-16T00:06:50.055Z,0.00
2022-08-16T00:07:49.044Z,0.00
2022-08-16T00:08:50.061Z,0.00
2022-08-16T00:09:49.044Z,0.00
2022-08-16T00:10:49.014Z,0.00
2022-08-16T00:11:52.719Z,0.00
2022-08-16T00:12:50.101Z,0.00
2022-08-16T00:13:54.311Z,0.00
2022-08-16T00:14:49.964Z,0.00
2022-08-16T00:15:51.934Z,0.00
2022-08-16T00:17:00.957Z,0.00
2022-08-16T00:17:56.112Z,0.00
2022-08-16T00:18:49.938Z,0.00
2022-08-16T00:19:49.161Z,0.00
2022-08-16T00:20:48.898Z,0.00
2022-08-16T00:21:52.236Z,0.00
2022-08-16T00:22:49.876Z,0.00
2022-08-16T00:23:48.885Z,0.00
2022-08-16T00:24:51.491Z,0.00
2022-08-16T00:26:36.452Z,0.00
2022-08-16T00:26:50.206Z,0.00
2022-08-16T00:27:48.819Z,0.00
2022-08-16T00:28:48.838Z,0.00
2022-08-16T00:30:08.379Z,0.00
2022-08-16T00:30:49.785Z,0.00
2022-08-16T00:31:59.381Z,0.00
2022-08-16T00:32:49.890Z,0.00
2022-08-16T00:33:50.377Z,0.00
2022-08-16T00:34:54.243Z,0.00
2022-08-16T00:35:49.830Z,0.00
2022-08-16T00:36:48.738Z,0.00
2022-08-16T00:37:58.829Z,0.00
2022-08-16T00:38:49.696Z,0.00
2022-08-16T00:39:58.632Z,0.00
2022-08-16T00:40:50.831Z,0.00
2022-08-16T00:41:48.666Z,0.00
2022-08-16T00:42:48.913Z,0.00
2022-08-16T00:43:49.649Z,0.00
2022-08-16T00:44:48.640Z,0.00
2022-08-16T00:46:00.299Z,0.00
2022-08-16T00:46:52.920Z,0.00
2022-08-16T00:47:49.856Z,0.00
2022-08-16T00:48:48.611Z,0.00
2022-08-16T00:49:56.328Z,0.00
2022-08-16T00:50:49.560Z,0.00
2022-08-16T00:51:54.944Z,0.00
2022-08-16T00:52:51.066Z,0.00
2022-08-16T00:53:48.523Z,0.00
2022-08-16T00:54:48.555Z,0.00
2022-08-16T00:55:48.510Z,0.00
2022-08-16T00:56:58.119Z,0.00
2022-08-16T00:57:59.558Z,0.00
2022-08-16T00:58:49.500Z,0.00
2022-08-16T00:59:54.828Z,0.00
2022-08-16T01:00:54.030Z,0.00
2022-08-16T01:01:49.443Z,0.00
2022-08-16T01:02:48.853Z,0.00
2022-08-16T01:03:49.332Z,0.00
2022-08-16T01:05:10.689Z,0.00
2022-08-16T01:05:49.401Z,0.00
2022-08-16T01:06:49.172Z,0.00
2022-08-16T01:07:50.864Z,0.00
2022-08-16T01:08:48.357Z,0.00
2022-08-16T01:09:48.362Z,0.00
2022-08-16T01:10:48.340Z,0.00
2022-08-16T01:11:55.090Z,0.00
2022-08-16T01:12:49.520Z,0.00
2022-08-16T01:13:48.298Z,0.00
2022-08-16T01:14:48.309Z,0.00
2022-08-16T01:15:48.284Z,0.00
2022-08-16T01:16:48.276Z,0.00
2022-08-16T01:17:48.252Z,0.00
2022-08-16T01:18:49.245Z,0.00
2022-08-16T01:19:48.244Z,0.00
2022-08-16T01:20:48.232Z,0.00
2022-08-16T01:21:48.213Z,0.00
2022-08-16T01:22:50.131Z,0.00
2022-08-16T01:23:58.685Z,0.00
2022-08-16T01:24:54.931Z,0.00
2022-08-16T01:25:59.800Z,0.00
2022-08-16T01:26:49.160Z,0.00
2022-08-16T01:27:48.139Z,0.00
2022-08-16T01:28:48.135Z,0.00
2022-08-16T01:29:57.820Z,0.00
2022-08-16T01:30:49.673Z,0.00
2022-08-16T01:31:48.110Z,0.00
2022-08-16T01:32:59.474Z,0.00
2022-08-16T01:33:49.724Z,0.00
2022-08-16T01:34:53.747Z,0.00
2022-08-16T01:35:52.592Z,0.00
2022-08-16T01:36:48.043Z,0.00
2022-08-16T01:37:52.898Z,0.00
2022-08-16T01:38:53.217Z,0.00
2022-08-16T01:39:49.066Z,0.00
2022-08-16T01:40:48.017Z,0.00
2022-08-16T01:41:47.983Z,0.00
2022-08-16T01:42:49.678Z,0.00
2022-08-16T01:43:53.762Z,0.00
2022-08-16T01:44:48.955Z,0.00
2022-08-16T01:45:47.951Z,0.00
2022-08-16T01:46:48.962Z,0.00
2022-08-16T01:47:49.566Z,0.00
2022-08-16T01:48:47.906Z,0.00
2022-08-16T01:50:43.165Z,0.00
2022-08-16T01:51:09.465Z,0.00
2022-08-16T01:51:48.877Z,0.00
2022-08-16T01:52:48.005Z,0.00
2022-08-16T01:53:55.224Z,0.00
2022-08-16T01:54:48.848Z,0.00
2022-08-16T01:55:54.228Z,0.00
2022-08-16T01:56:49.168Z,0.00
2022-08-16T01:57:53.863Z,0.00
2022-08-16T01:58:48.792Z,0.00
2022-08-16T01:59:47.780Z,0.00
2022-08-16T02:00:48.780Z,0.00
2022-08-16T02:01:52.699Z,0.00
2022-08-16T02:02:52.513Z,0.00
2022-08-16T02:03:50.536Z,0.00
2022-08-16T02:04:55.316Z,0.00
2022-08-16T02:05:52.045Z,0.00
2022-08-16T02:06:47.830Z,0.00
2022-08-16T02:07:47.691Z,0.00
2022-08-16T02:08:47.683Z,0.00
2022-08-16T02:09:57.090Z,0.00
2022-08-16T02:10:48.683Z,0.00
2022-08-16T02:11:52.981Z,0.00
2022-08-16T02:12:51.394Z,0.00
2022-08-16T02:13:47.623Z,0.00
2022-08-16T02:14:48.626Z,0.00
2022-08-16T02:15:47.602Z,0.00
2022-08-16T02:16:47.610Z,0.00
2022-08-16T02:17:47.578Z,0.00
2022-08-16T02:18:48.577Z,0.00
2022-08-16T02:19:59.306Z,0.00
2022-08-16T02:20:48.551Z,0.00
2022-08-16T02:22:08.768Z,0.00
2022-08-16T02:22:48.842Z,0.00
2022-08-16T02:23:47.517Z,0.00
2022-08-16T02:24:48.505Z,0.00
2022-08-16T02:25:47.521Z,0.00
2022-08-16T02:26:48.476Z,0.00
2022-08-16T02:27:50.824Z,0.00
2022-08-16T02:28:47.505Z,0.00
2022-08-16T02:29:47.461Z,0.00
2022-08-16T02:30:50.911Z,0.00
2022-08-16T02:32:04.069Z,0.00
2022-08-16T02:32:51.180Z,0.00
2022-08-16T02:33:50.193Z,0.00
2022-08-16T02:34:47.418Z,0.00
2022-08-16T02:35:53.655Z,0.00
2022-08-16T02:36:49.865Z,0.00
2022-08-16T02:37:52.422Z,0.00
2022-08-16T02:38:48.343Z,0.00
2022-08-16T02:39:47.378Z,0.00
2022-08-16T02:40:48.331Z,0.00
2022-08-16T02:41:53.040Z,0.00
2022-08-16T02:42:49.833Z,0.00
2022-08-16T02:43:47.284Z,0.00
2022-08-16T02:44:47.282Z,0.00
2022-08-16T02:45:47.273Z,0.00
2022-08-16T02:46:50.394Z,0.00
2022-08-16T02:48:00.312Z,0.00
2022-08-16T02:48:49.429Z,0.00
2022-08-16T02:49:59.070Z,0.00
2022-08-16T02:50:54.053Z,0.00
2022-08-16T02:51:48.203Z,0.00
2022-08-16T02:52:47.342Z,0.00
2022-08-16T02:53:47.194Z,0.00
2022-08-16T02:54:47.181Z,0.00
2022-08-16T02:55:50.421Z,0.00
2022-08-16T02:56:47.936Z,0.00
2022-08-16T02:57:54.419Z,0.00
2022-08-16T02:58:48.128Z,0.00
2022-08-16T02:59:47.109Z,0.00
2022-08-16T03:00:50.028Z,0.00
2022-08-16T03:01:47.140Z,0.00
2022-08-16T03:02:47.257Z,0.00
2022-08-16T03:04:40.950Z,0.00
2022-08-16T03:04:52.484Z,0.00
2022-08-16T03:05:52.230Z,0.00
2022-08-16T03:06:48.049Z,0.00
2022-08-16T03:07:50.633Z,0.00
2022-08-16T03:08:52.016Z,0.00
2022-08-16T03:09:46.994Z,0.00
2022-08-16T03:10:47.813Z,0.00
2022-08-16T03:11:47.020Z,0.00
2022-08-16T03:12:55.286Z,0.00
2022-08-16T03:13:47.953Z,0.00
2022-08-16T03:14:46.965Z,0.00
2022-08-16T03:15:46.927Z,0.00
2022-08-16T03:16:59.586Z,0.00
2022-08-16T03:17:53.174Z,0.00
2022-08-16T03:18:47.891Z,0.00
2022-08-16T03:19:59.914Z,0.00
2022-08-16T03:20:55.874Z,0.00
2022-08-16T03:21:47.887Z,0.00
2022-08-16T03:22:47.000Z,0.00
2022-08-16T03:23:46.841Z,0.00
2022-08-16T03:24:46.820Z,0.00
2022-08-16T03:25:48.392Z,0.00
2022-08-16T03:26:46.806Z,0.00
2022-08-16T03:27:46.807Z,0.00
2022-08-16T03:28:46.800Z,0.00
2022-08-16T03:29:54.137Z,0.00
2022-08-16T03:30:47.769Z,0.00
2022-08-16T03:31:46.749Z,0.00
2022-08-16T03:32:51.366Z,0.00
2022-08-16T03:33:46.727Z,0.00
2022-08-16T03:34:49.833Z,0.00
2022-08-16T03:35:46.700Z,0.00
2022-08-16T03:36:46.704Z,0.00
2022-08-16T03:38:02.781Z,0.00
2022-08-16T03:38:47.663Z,0.00
2022-08-16T03:39:46.692Z,0.00
2022-08-16T03:40:46.660Z,0.00
2022-08-16T03:41:50.225Z,0.00
2022-08-16T03:43:00.532Z,0.00
2022-08-16T03:43:51.196Z,0.00
2022-08-16T03:44:49.415Z,0.00
2022-08-16T03:45:46.592Z,0.00
2022-08-16T03:46:49.818Z,0.00
2022-08-16T03:47:46.588Z,0.00
2022-08-16T03:48:46.552Z,0.00
2022-08-16T03:49:46.544Z,0.00
2022-08-16T03:50:59.837Z,0.00
2022-08-16T03:51:47.595Z,0.00
2022-08-16T03:52:46.662Z,0.00
2022-08-16T03:53:46.500Z,0.00
2022-08-16T03:54:57.375Z,4.00
2022-08-16T03:55:47.477Z,0.00
2022-08-16T03:56:56.984Z,0.00
2022-08-16T03:57:52.164Z,0.00
2022-08-16T03:58:48.417Z,0.00
2022-08-16T03:59:46.463Z,4.00
2022-08-16T04:00:46.517Z,4.00
2022-08-16T04:01:47.460Z,0.00
2022-08-16T04:02:47.583Z,0.00
2022-08-16T04:03:46.387Z,4.00
2022-08-16T04:04:46.374Z,4.00
2022-08-16T04:05:46.614Z,0.00
2022-08-16T04:06:46.377Z,4.00
2022-08-16T04:07:46.346Z,4.00
2022-08-16T04:08:46.380Z,4.00
2022-08-16T04:09:46.320Z,4.00
2022-08-16T04:10:46.303Z,8.00
2022-08-16T04:11:47.298Z,4.00
2022-08-16T04:12:54.283Z,4.00
2022-08-16T04:13:59.470Z,8.00
2022-08-16T04:14:48.150Z,8.00
2022-08-16T04:15:46.253Z,8.00
2022-08-16T04:16:47.250Z,8.00
2022-08-16T04:17:46.241Z,8.00
2022-08-16T04:18:46.271Z,12.00
2022-08-16T04:19:46.729Z,12.00
2022-08-16T04:20:46.203Z,16.00
2022-08-16T04:21:47.570Z,16.00
2022-08-16T04:22:48.788Z,16.00
2022-08-16T04:23:46.173Z,16.00
2022-08-16T04:24:54.390Z,20.00
2022-08-16T04:25:47.357Z,24.00
2022-08-16T04:26:46.741Z,24.00
2022-08-16T04:27:55.801Z,24.00
2022-08-16T04:28:53.398Z,24.00
2022-08-16T04:29:47.093Z,32.00
2022-08-16T04:30:47.750Z,36.00
2022-08-16T04:31:46.070Z,36.00
2022-08-16T04:32:49.229Z,36.00
2022-08-16T04:33:50.857Z,40.00
2022-08-16T04:34:47.033Z,48.00
2022-08-16T04:35:49.550Z,56.00
2022-08-16T04:36:46.047Z,64.00
2022-08-16T04:37:46.013Z,64.00
2022-08-16T04:38:45.994Z,64.00
2022-08-16T04:39:57.026Z,72.00
2022-08-16T04:40:47.045Z,84.00
2022-08-16T04:41:45.981Z,96.00
2022-08-16T04:42:45.951Z,96.00
2022-08-16T04:43:45.946Z,96.00
2022-08-16T04:44:54.510Z,100.00
2022-08-16T04:45:46.916Z,116.00
2022-08-16T04:47:02.295Z,128.00
2022-08-16T04:47:46.906Z,136.00
2022-08-16T04:48:46.912Z,136.00
2022-08-16T04:49:46.328Z,136.00
2022-08-16T04:50:45.873Z,148.00
2022-08-16T04:51:45.847Z,168.00
2022-08-16T04:52:47.043Z,188.00
2022-08-16T04:53:45.848Z,188.00
2022-08-16T04:54:45.809Z,188.00
2022-08-16T04:55:45.814Z,188.00
2022-08-16T04:56:46.300Z,208.00
2022-08-16T04:57:45.783Z,236.00
2022-08-16T04:58:47.299Z,252.00
2022-08-16T04:59:45.755Z,236.00
2022-08-16T05:00:45.742Z,240.00
2022-08-16T05:01:57.900Z,276.00
2022-08-16T05:02:46.785Z,316.00
2022-08-16T05:04:00.597Z,332.00
2022-08-16T05:04:46.709Z,336.00
2022-08-16T05:05:59.205Z,340.00
2022-08-16T05:06:46.675Z,380.00
2022-08-16T05:07:58.462Z,428.00
2022-08-16T05:08:47.131Z,464.00
2022-08-16T05:09:49.164Z,480.00
2022-08-16T05:10:45.637Z,472.00
2022-08-16T05:11:45.623Z,488.00
2022-08-16T05:12:45.609Z,564.00
2022-08-16T05:13:45.597Z,604.00
2022-08-16T05:15:02.705Z,600.00
2022-08-16T05:15:46.616Z,572.00
2022-08-16T05:16:45.562Z,604.00
2022-08-16T05:17:45.553Z,628.00
2022-08-16T05:18:45.545Z,656.00
2022-08-16T05:19:46.800Z,676.00
2022-08-16T05:21:01.372Z,628.00
2022-08-16T05:21:46.524Z,636.00
2022-08-16T05:22:45.689Z,664.00
2022-08-16T05:23:51.735Z,696.00
2022-08-16T05:24:46.506Z,716.00
2022-08-16T05:25:48.490Z,728.00
2022-08-16T05:26:51.313Z,708.00
2022-08-16T05:27:46.443Z,652.00
2022-08-16T05:28:45.431Z,672.00
2022-08-16T05:29:59.478Z,728.00
2022-08-16T05:30:50.315Z,744.00
2022-08-16T05:31:48.300Z,772.00
2022-08-16T05:32:47.554Z,708.00
2022-08-16T05:33:45.374Z,804.00
2022-08-16T05:34:46.368Z,884.00
2022-08-16T05:35:55.443Z,932.00
2022-08-16T05:36:46.336Z,928.00
2022-08-16T05:37:45.328Z,1092.00
2022-08-16T05:38:45.320Z,1252.00
2022-08-16T05:39:45.395Z,1280.00
2022-08-16T05:41:00.082Z,1652.00
2022-08-16T05:41:46.284Z,1752.00
2022-08-16T05:42:47.763Z,1876.00
2022-08-16T05:43:46.746Z,1800.00
2022-08-16T05:44:45.248Z,1632.00
2022-08-16T05:45:45.265Z,1612.00
2022-08-16T05:46:46.223Z,3012.00
2022-08-16T05:47:45.216Z,2796.00
2022-08-16T05:48:45.202Z,2224.00
2022-08-16T05:49:46.193Z,2776.00
2022-08-16T05:50:45.213Z,2900.00
2022-08-16T05:51:46.180Z,2872.00
2022-08-16T05:52:45.170Z,3684.00
2022-08-16T05:53:45.155Z,3952.00
2022-08-16T05:54:47.625Z,3480.00
2022-08-16T05:55:46.138Z,3408.00
2022-08-16T05:56:45.110Z,3648.00
2022-08-16T05:57:45.118Z,3388.00
2022-08-16T05:58:46.087Z,3540.00
2022-08-16T05:59:45.096Z,3556.00
2022-08-16T06:00:45.078Z,4808.00
2022-08-16T06:01:45.145Z,5056.00
2022-08-16T06:02:45.046Z,5476.00
2022-08-16T06:03:45.042Z,5748.00
2022-08-16T06:04:45.756Z,6116.00
2022-08-16T06:05:45.045Z,6164.00
2022-08-16T06:06:56.480Z,5488.00
2022-08-16T06:07:45.989Z,6176.00
2022-08-16T06:08:46.559Z,6212.00
2022-08-16T06:09:44.971Z,6968.00
2022-08-16T06:11:09.671Z,7652.00
2022-08-16T06:11:45.958Z,7360.00
2022-08-16T06:12:44.932Z,5648.00
2022-08-16T06:13:44.930Z,5020.00
2022-08-16T06:14:44.926Z,5432.00
2022-08-16T06:15:44.901Z,6656.00
2022-08-16T06:16:44.917Z,6956.00
2022-08-16T06:17:44.881Z,7352.00
2022-08-16T06:18:44.877Z,5444.00
2022-08-16T06:19:44.862Z,5704.00
2022-08-16T06:20:55.818Z,6124.00
2022-08-16T06:21:45.851Z,9796.00
2022-08-16T06:22:47.872Z,11624.00
2022-08-16T06:23:45.816Z,10592.00
2022-08-16T06:24:54.008Z,7280.00
2022-08-16T06:25:52.995Z,6032.00
2022-08-16T06:26:57.294Z,6836.00
2022-08-16T06:27:57.096Z,9988.00
2022-08-16T06:28:45.754Z,12172.00
2022-08-16T06:29:44.755Z,13032.00
2022-08-16T06:30:45.745Z,12352.00
2022-08-16T06:31:46.864Z,15360.00
2022-08-16T06:32:48.427Z,18272.00
2022-08-16T06:33:45.118Z,19200.00
2022-08-16T06:34:56.963Z,18464.00
2022-08-16T06:35:45.693Z,20192.00
2022-08-16T06:36:44.702Z,24096.00
2022-08-16T06:37:47.603Z,29824.00
2022-08-16T06:38:55.387Z,32736.00
2022-08-16T06:39:49.544Z,28480.00
2022-08-16T06:40:49.179Z,19552.00
2022-08-16T06:41:44.615Z,12672.00
2022-08-16T06:42:47.724Z,10888.00
2022-08-16T06:43:44.590Z,10732.00
2022-08-16T06:44:44.591Z,10828.00
2022-08-16T06:45:44.570Z,10552.00
2022-08-16T06:46:44.567Z,10368.00
2022-08-16T06:47:53.466Z,10044.00
2022-08-16T06:48:51.074Z,10232.00
2022-08-16T06:49:53.895Z,10052.00
2022-08-16T06:50:45.511Z,9796.00
2022-08-16T06:51:46.313Z,9476.00
2022-08-16T06:52:57.672Z,9448.00
2022-08-16T06:53:45.511Z,9356.00
2022-08-16T06:54:49.812Z,9464.00
2022-08-16T06:55:45.457Z,9548.00
2022-08-16T06:56:44.449Z,9596.00
2022-08-16T06:57:44.439Z,9796.00
2022-08-16T06:58:44.961Z,9856.00
2022-08-16T06:59:52.933Z,9660.00
2022-08-16T07:00:45.474Z,9552.00
2022-08-16T07:01:54.628Z,9548.00
2022-08-16T07:02:51.409Z,9568.00
2022-08-16T07:03:55.212Z,10140.00
2022-08-16T07:04:45.359Z,14688.00
2022-08-16T07:05:44.356Z,23200.00
2022-08-16T07:06:45.009Z,29152.00
2022-08-16T07:07:44.329Z,29664.00
2022-08-16T07:08:44.339Z,30720.00
2022-08-16T07:09:44.303Z,30912.00
2022-08-16T07:10:44.296Z,31392.00
2022-08-16T07:11:45.542Z,31904.00
2022-08-16T07:12:47.382Z,33696.00
2022-08-16T07:13:58.750Z,35136.00
2022-08-16T07:14:45.261Z,35296.00
2022-08-16T07:15:50.383Z,36096.00
2022-08-16T07:16:45.232Z,32672.00
2022-08-16T07:17:44.219Z,20896.00
2022-08-16T07:18:59.364Z,7128.00
2022-08-16T07:20:02.939Z,4536.00
2022-08-16T07:20:47.478Z,4256.00
2022-08-16T07:21:46.479Z,4136.00
2022-08-16T07:22:52.695Z,4072.00
2022-08-16T07:23:45.165Z,4032.00
2022-08-16T07:24:45.958Z,3988.00
2022-08-16T07:25:44.158Z,3892.00
2022-08-16T07:26:48.743Z,3872.00
2022-08-16T07:27:45.107Z,3796.00
2022-08-16T07:28:44.119Z,3816.00
2022-08-16T07:29:44.095Z,3800.00
2022-08-16T07:30:46.359Z,3780.00
2022-08-16T07:31:44.088Z,3760.00
2022-08-16T07:32:51.532Z,3748.00
2022-08-16T07:33:52.394Z,3732.00
2022-08-16T07:34:48.491Z,3652.00
2022-08-16T07:35:49.592Z,3704.00
2022-08-16T07:36:45.134Z,3628.00
2022-08-16T07:37:44.026Z,3672.00
2022-08-16T07:38:43.997Z,3636.00
2022-08-16T07:39:44.009Z,3664.00
2022-08-16T07:41:00.350Z,3632.00
2022-08-16T07:41:44.952Z,3652.00
2022-08-16T07:42:43.969Z,3628.00
2022-08-16T07:43:43.946Z,3636.00
2022-08-16T07:44:50.336Z,3616.00
2022-08-16T07:45:51.137Z,3616.00
2022-08-16T07:46:44.902Z,3604.00
2022-08-16T07:47:43.886Z,3592.00
2022-08-16T07:48:43.893Z,3656.00
2022-08-16T07:49:53.372Z,3592.00
2022-08-16T07:50:58.707Z,3632.00
2022-08-16T07:51:44.839Z,3572.00
2022-08-16T07:52:43.836Z,3652.00
2022-08-16T07:53:44.057Z,3560.00
2022-08-16T07:54:46.021Z,3636.00
2022-08-16T07:55:47.881Z,3560.00
2022-08-16T07:56:43.792Z,3648.00
2022-08-16T07:57:58.042Z,3588.00
2022-08-16T07:58:44.765Z,3604.00
2022-08-16T07:59:46.241Z,3580.00
2022-08-16T08:00:43.937Z,3568.00
2022-08-16T08:01:43.746Z,3628.00
2022-08-16T08:02:43.721Z,3576.00
2022-08-16T08:03:48.255Z,3616.00
2022-08-16T08:04:44.726Z,3548.00
2022-08-16T08:05:43.714Z,3608.00
2022-08-16T08:06:43.684Z,3568.00
2022-08-16T08:07:45.215Z,3612.00
2022-08-16T08:08:51.818Z,3648.00
2022-08-16T08:09:44.646Z,3600.00
2022-08-16T08:10:43.647Z,3644.00
2022-08-16T08:12:00.686Z,3588.00
2022-08-16T08:12:44.632Z,3648.00
2022-08-16T08:13:43.597Z,3576.00
2022-08-16T08:14:43.592Z,3656.00
2022-08-16T08:15:52.652Z,3556.00
2022-08-16T08:16:45.448Z,3636.00
2022-08-16T08:17:44.177Z,3512.00
2022-08-16T08:18:43.558Z,3556.00
2022-08-16T08:19:44.538Z,3492.00
2022-08-16T08:20:44.521Z,3544.00
2022-08-16T08:21:59.836Z,3484.00
2022-08-16T08:22:44.586Z,3544.00
2022-08-16T08:23:43.507Z,3416.00
2022-08-16T08:24:44.214Z,3532.00
2022-08-16T08:25:54.936Z,3524.00
2022-08-16T08:26:44.569Z,3552.00
2022-08-16T08:27:44.457Z,3568.00
2022-08-16T08:28:43.440Z,3556.00
2022-08-16T08:29:43.416Z,3604.00
2022-08-16T08:30:51.760Z,3624.00
2022-08-16T08:31:44.403Z,3712.00
2022-08-16T08:32:59.806Z,3664.00
2022-08-16T08:33:47.321Z,3684.00
2022-08-16T08:34:46.440Z,3620.00
2022-08-16T08:35:43.352Z,3676.00
2022-08-16T08:36:43.346Z,3560.00
2022-08-16T08:37:55.799Z,3692.00
2022-08-16T08:38:45.794Z,3628.00
2022-08-16T08:39:54.663Z,3700.00
2022-08-16T08:40:44.301Z,3636.00
2022-08-16T08:41:43.283Z,3716.00
2022-08-16T08:42:43.323Z,3692.00
2022-08-16T08:43:43.275Z,3736.00
2022-08-16T08:44:43.273Z,3692.00
2022-08-16T08:45:48.805Z,3740.00
2022-08-16T08:46:44.232Z,3704.00
2022-08-16T08:47:44.218Z,3744.00
2022-08-16T08:48:44.232Z,3712.00
2022-08-16T08:49:45.972Z,3764.00
2022-08-16T08:50:43.242Z,3776.00
2022-08-16T08:51:44.171Z,3788.00
2022-08-16T08:52:43.165Z,3832.00
2022-08-16T08:53:43.208Z,3804.00
2022-08-16T08:54:43.156Z,3820.00
2022-08-16T08:55:43.126Z,3824.00
2022-08-16T08:56:45.428Z,3808.00
2022-08-16T08:57:43.106Z,3832.00
2022-08-16T08:58:53.931Z,3820.00
2022-08-16T08:59:44.116Z,3828.00
2022-08-16T09:00:51.365Z,3816.00
2022-08-16T09:01:56.759Z,3816.00
2022-08-16T09:02:44.463Z,3776.00
2022-08-16T09:03:43.082Z,3796.00
2022-08-16T09:04:43.027Z,3740.00
2022-08-16T09:05:43.028Z,3784.00
2022-08-16T09:06:43.053Z,3732.00
2022-08-16T09:08:00.452Z,3772.00
2022-08-16T09:08:47.489Z,3768.00
2022-08-16T09:09:43.006Z,3784.00
2022-08-16T09:10:42.962Z,3764.00
2022-08-16T09:11:42.946Z,3772.00
2022-08-16T09:12:46.518Z,3792.00
2022-08-16T09:13:47.164Z,3876.00
2022-08-16T09:14:50.771Z,3840.00
2022-08-16T09:15:43.932Z,3892.00
2022-08-16T09:17:00.797Z,3824.00
2022-08-16T09:17:51.788Z,3888.00
2022-08-16T09:18:43.907Z,3836.00
2022-08-16T09:19:42.868Z,3928.00
2022-08-16T09:20:58.399Z,3872.00
2022-08-16T09:21:43.888Z,3952.00
2022-08-16T09:22:42.825Z,3864.00
2022-08-16T09:23:42.815Z,3940.00
2022-08-16T09:24:52.643Z,3836.00
2022-08-16T09:25:43.791Z,3904.00
2022-08-16T09:26:45.727Z,3844.00
2022-08-16T09:27:56.579Z,3900.00
2022-08-16T09:29:15.159Z,3896.00
2022-08-16T09:29:45.273Z,4000.00
2022-08-16T09:30:44.288Z,4112.00
2022-08-16T09:31:42.734Z,3988.00
2022-08-16T09:32:46.959Z,4096.00
2022-08-16T09:33:42.747Z,3924.00
2022-08-16T09:34:42.694Z,4124.00
2022-08-16T09:35:43.019Z,4044.00
2022-08-16T09:36:44.970Z,4440.00
2022-08-16T09:37:42.689Z,3980.00
2022-08-16T09:38:42.653Z,4344.00
2022-08-16T09:39:44.107Z,3956.00
2022-08-16T09:40:43.969Z,4328.00
2022-08-16T09:41:42.646Z,3980.00
2022-08-16T09:42:58.874Z,4160.00
2022-08-16T09:44:00.251Z,4212.00
2022-08-16T09:45:12.351Z,4112.00
2022-08-16T09:45:43.575Z,4240.00
2022-08-16T09:46:48.675Z,4052.00
2022-08-16T09:47:57.808Z,4128.00
2022-08-16T09:48:44.807Z,4024.00
2022-08-16T09:49:43.528Z,4020.00
2022-08-16T09:50:43.522Z,4000.00
2022-08-16T09:51:42.512Z,4076.00
2022-08-16T09:52:44.511Z,4040.00
2022-08-16T09:53:43.503Z,3796.00
2022-08-16T09:54:44.437Z,4028.00
2022-08-16T09:55:44.608Z,3816.00
2022-08-16T09:56:53.005Z,4060.00
2022-08-16T09:57:43.439Z,3964.00
2022-08-16T09:59:03.801Z,3916.00
2022-08-16T09:59:43.426Z,3904.00
2022-08-16T10:00:45.195Z,3760.00
2022-08-16T10:01:43.547Z,3948.00
2022-08-16T10:02:48.838Z,3620.00
2022-08-16T10:04:02.047Z,4084.00
2022-08-16T10:04:54.714Z,3780.00
2022-08-16T10:05:43.350Z,4076.00
2022-08-16T10:06:46.227Z,4112.00
2022-08-16T10:07:44.985Z,3668.00
2022-08-16T10:09:05.214Z,3956.00
2022-08-16T10:09:53.847Z,4060.00
2022-08-16T10:10:43.302Z,4144.00
2022-08-16T10:11:50.383Z,3976.00
2022-08-16T10:12:43.143Z,3992.00
2022-08-16T10:13:42.261Z,3460.00
2022-08-16T10:14:46.103Z,3996.00
2022-08-16T10:15:42.278Z,3696.00
2022-08-16T10:16:42.274Z,3564.00
2022-08-16T10:17:43.228Z,3916.00
2022-08-16T10:19:02.280Z,4116.00
2022-08-16T10:19:43.469Z,3480.00
2022-08-16T10:20:42.206Z,3880.00
2022-08-16T10:21:42.181Z,3928.00
2022-08-16T10:22:42.169Z,3884.00
2022-08-16T10:23:42.167Z,2292.00
2022-08-16T10:24:55.753Z,1804.00
2022-08-16T10:27:18.067Z,1776.00
2022-08-16T10:27:18.202Z,1784.00
2022-08-16T10:27:46.847Z,3488.00
2022-08-16T10:28:43.195Z,3872.00
2022-08-16T10:29:59.229Z,3792.00
2022-08-16T10:30:43.089Z,3896.00
2022-08-16T10:31:44.153Z,3568.00
2022-08-16T10:32:42.076Z,3784.00
2022-08-16T10:33:42.053Z,3748.00
2022-08-16T10:34:42.041Z,3720.00
2022-08-16T10:35:46.613Z,3784.00
2022-08-16T10:36:42.032Z,3792.00
2022-08-16T10:37:42.012Z,3740.00
2022-08-16T10:38:42.275Z,3776.00
2022-08-16T10:39:42.516Z,3732.00
2022-08-16T10:40:45.498Z,3744.00
2022-08-16T10:41:41.969Z,3700.00
2022-08-16T10:42:41.997Z,3772.00
2022-08-16T10:43:41.947Z,3884.00
2022-08-16T10:44:42.490Z,3716.00
2022-08-16T10:45:42.047Z,2208.00
2022-08-16T10:46:42.400Z,3628.00
2022-08-16T10:47:41.897Z,3712.00
2022-08-16T10:48:41.885Z,3676.00
2022-08-16T10:49:42.875Z,3684.00
2022-08-16T10:50:41.876Z,3888.00
2022-08-16T10:52:03.157Z,3536.00
2022-08-16T10:52:42.865Z,3548.00
2022-08-16T10:53:41.827Z,3760.00
2022-08-16T10:55:44.462Z,1840.00
2022-08-16T10:56:52.393Z,1628.00
2022-08-16T10:57:42.804Z,3344.00
2022-08-16T10:58:41.783Z,3504.00
2022-08-16T10:59:51.895Z,3328.00
2022-08-16T11:00:42.754Z,3548.00
2022-08-16T11:01:44.099Z,3380.00
2022-08-16T11:03:42.158Z,3576.00
2022-08-16T11:03:45.774Z,1652.00
2022-08-16T11:07:06.570Z,1940.00
2022-08-16T11:07:43.710Z,2056.00
2022-08-16T11:08:45.440Z,1524.00
2022-08-16T11:09:43.159Z,1508.00
2022-08-16T11:12:42.639Z,1508.00
2022-08-16T11:13:58.821Z,1576.00
2022-08-16T11:15:11.312Z,1620.00
2022-08-16T11:15:47.876Z,1732.00
2022-08-16T11:18:21.266Z,1904.00
2022-08-16T11:19:03.081Z,3300.00
2022-08-16T11:20:48.961Z,3488.00
2022-08-16T11:22:48.435Z,1680.00
2022-08-16T11:23:58.377Z,1500.00
2022-08-16T11:24:45.048Z,1552.00
2022-08-16T11:26:07.407Z,2204.00
2022-08-16T11:26:42.465Z,1600.00
2022-08-16T11:27:41.461Z,1616.00
2022-08-16T11:29:42.456Z,1464.00
2022-08-16T11:30:41.421Z,1496.00
2022-08-16T11:31:45.702Z,1372.00
2022-08-16T11:32:42.427Z,1620.00
2022-08-16T11:33:56.841Z,3352.00
2022-08-16T11:35:05.910Z,2884.00
2022-08-16T11:35:44.089Z,2964.00
2022-08-16T11:36:53.874Z,3108.00
2022-08-16T11:38:51.824Z,1560.00
2022-08-16T11:39:42.435Z,1796.00
2022-08-16T11:40:44.108Z,2992.00
2022-08-16T11:41:43.612Z,3008.00
2022-08-16T11:42:41.301Z,2988.00
2022-08-16T11:43:41.385Z,3072.00
2022-08-16T11:44:52.028Z,3152.00
2022-08-16T11:45:42.587Z,3172.00
2022-08-16T11:46:44.706Z,3136.00
2022-08-16T11:47:42.320Z,3000.00
2022-08-16T11:48:41.233Z,1408.00
2022-08-16T11:49:41.238Z,1276.00
2022-08-16T11:50:41.213Z,1304.00
2022-08-16T11:51:41.201Z,1236.00
2022-08-16T11:52:41.185Z,1212.00
2022-08-16T11:53:42.184Z,1244.00
2022-08-16T11:54:41.163Z,2160.00
2022-08-16T11:55:44.147Z,2732.00
2022-08-16T11:56:52.983Z,2868.00
2022-08-16T11:57:42.136Z,2924.00
2022-08-16T11:58:41.952Z,2928.00
2022-08-16T11:59:41.121Z,2956.00
2022-08-16T12:00:51.077Z,2928.00
2022-08-16T12:01:55.261Z,2900.00
2022-08-16T12:02:45.999Z,2592.00
2022-08-16T12:03:41.676Z,1416.00
2022-08-16T12:04:41.211Z,1404.00
2022-08-16T12:05:41.047Z,2844.00
2022-08-16T12:06:41.030Z,2236.00
2022-08-16T12:07:41.161Z,2708.00
2022-08-16T12:08:41.234Z,2648.00
2022-08-16T12:09:43.382Z,2008.00
2022-08-16T12:10:40.986Z,1532.00
2022-08-16T12:11:40.978Z,1476.00
2022-08-16T12:12:40.971Z,2792.00
2022-08-16T12:13:40.962Z,2912.00
2022-08-16T12:14:40.987Z,2860.00
2022-08-16T12:15:40.945Z,2824.00
2022-08-16T12:16:40.925Z,2744.00
2022-08-16T12:17:42.003Z,2752.00
2022-08-16T12:18:40.930Z,2744.00
2022-08-16T12:19:40.899Z,2728.00
2022-08-16T12:20:40.882Z,2708.00
2022-08-16T12:21:58.297Z,2664.00
2022-08-16T12:22:41.863Z,2648.00
2022-08-16T12:23:40.860Z,2792.00
2022-08-16T12:24:40.845Z,2612.00
2022-08-16T12:25:40.827Z,2636.00
2022-08-16T12:26:40.814Z,2616.00
2022-08-16T12:27:40.822Z,2520.00
2022-08-16T12:28:54.412Z,2556.00
2022-08-16T12:29:41.798Z,1820.00
2022-08-16T12:30:40.780Z,2560.00
2022-08-16T12:32:01.397Z,2584.00
2022-08-16T12:32:42.536Z,2628.00
2022-08-16T12:33:44.505Z,2612.00
2022-08-16T12:34:50.489Z,2600.00
2022-08-16T12:35:41.718Z,2628.00
2022-08-16T12:36:40.706Z,1300.00
2022-08-16T12:37:41.545Z,1396.00
2022-08-16T12:38:47.955Z,2216.00
2022-08-16T12:39:50.949Z,2188.00
2022-08-16T12:40:41.889Z,2532.00